Time;durP1;ratioP1;P1;durP2;ratioP2;P2;SDS_P1;SDS_P2;PMS_P1;PMS_P2;Temp;Humidity;BMP_temperature;BMP_pressure;BME280_temperature;BME280_humidity;BME280_pressure;Samples;Min_cycle;Max_cycle;Signal;HPM_P1;HPM_P2
2022/02/26 00:01:23;;;;;;;7.53;4.97;;;;;;;;;;5012832;28;20585;-84
2022/02/26 00:04:28;;;;;;;10.80;4.40;;;;;;;;;;5016221;28;20636;-83
2022/02/26 00:07:32;;;;;;;7.03;4.50;;;;;;;;;;5031620;28;20808;-84
2022/02/26 00:10:36;;;;;;;11.83;4.83;;;;;;;;;;5022414;28;20596;-84
2022/02/26 00:13:40;;;;;;;9.93;5.20;;;;;;;;;;5007779;28;20588;-84
2022/02/26 00:16:45;;;;;;;7.83;4.50;;;;;;;;;;5000749;28;20586;-83
2022/02/26 00:19:49;;;;;;;8.93;5.00;;;;;;;;;;5019589;28;20580;-84
2022/02/26 00:22:53;;;;;;;9.63;5.00;;;;;;;;;;5019692;28;20556;-84
2022/02/26 00:25:58;;;;;;;8.17;4.67;;;;;;;;;;5018533;28;20655;-84
2022/02/26 00:29:02;;;;;;;10.73;4.93;;;;;;;;;;5012928;28;20540;-84
2022/02/26 00:32:07;;;;;;;10.50;4.57;;;;;;;;;;4993309;28;21063;-83
2022/02/26 00:35:11;;;;;;;12.77;4.63;;;;;;;;;;5024340;22;20675;-86
2022/02/26 00:38:15;;;;;;;7.90;4.00;;;;;;;;;;5034632;28;20545;-86
2022/02/26 00:41:20;;;;;;;7.50;4.27;;;;;;;;;;5015294;28;20540;-86
2022/02/26 00:44:25;;;;;;;9.37;4.77;;;;;;;;;;5022047;28;20990;-86
2022/02/26 00:47:29;;;;;;;9.10;4.60;;;;;;;;;;4987619;28;20541;-86
2022/02/26 00:50:33;;;;;;;16.30;4.53;;;;;;;;;;4998271;28;20592;-86
2022/02/26 00:53:37;;;;;;;8.53;3.90;;;;;;;;;;4999033;28;20557;-86
2022/02/26 00:56:42;;;;;;;12.73;5.03;;;;;;;;;;4999719;28;20612;-86
2022/02/26 00:59:48;;;;;;;10.20;4.70;;;;;;;;;;4976282;28;20612;-86
2022/02/26 01:02:52;;;;;;;10.67;4.67;;;;;;;;;;4980059;28;21198;-86
2022/02/26 01:05:56;;;;;;;10.30;4.93;;;;;;;;;;4980415;28;21221;-85
2022/02/26 01:09:01;;;;;;;13.53;4.53;;;;;;;;;;4981237;28;20549;-85
2022/02/26 01:12:06;;;;;;;16.03;4.90;;;;;;;;;;4989082;28;21078;-85
2022/02/26 01:15:11;;;;;;;10.67;4.57;;;;;;;;;;5011316;28;20628;-83
2022/02/26 01:18:15;;;;;;;10.93;4.90;;;;;;;;;;5000663;28;20544;-84
2022/02/26 01:21:20;;;;;;;11.33;5.13;;;;;;;;;;5010696;28;20588;-84
2022/02/26 01:24:24;;;;;;;9.83;4.60;;;;;;;;;;4988170;28;20596;-85
2022/02/26 01:27:28;;;;;;;12.77;5.20;;;;;;;;;;4980692;28;20538;-85
2022/02/26 01:30:33;;;;;;;10.47;4.67;;;;;;;;;;4997720;28;20597;-85
2022/02/26 01:33:38;;;;;;;13.70;5.13;;;;;;;;;;4991550;28;20545;-85
2022/02/26 01:36:43;;;;;;;13.73;5.07;;;;;;;;;;4991040;28;21216;-85
2022/02/26 01:39:46;;;;;;;10.87;4.30;;;;;;;;;;4980331;28;21154;-85
2022/02/26 01:42:51;;;;;;;9.07;4.83;;;;;;;;;;5003079;28;20532;-85
2022/02/26 01:45:55;;;;;;;10.30;4.70;;;;;;;;;;5003521;28;20660;-86
2022/02/26 01:48:59;;;;;;;9.60;4.87;;;;;;;;;;5002442;28;20592;-83
2022/02/26 01:52:04;;;;;;;8.27;4.60;;;;;;;;;;4991639;28;20596;-83
2022/02/26 01:55:08;;;;;;;11.77;4.93;;;;;;;;;;5003694;28;20652;-86
2022/02/26 01:58:12;;;;;;;6.90;4.47;;;;;;;;;;5003213;28;20604;-85
2022/02/26 02:01:17;;;;;;;6.57;4.57;;;;;;;;;;4996630;28;20614;-83
2022/02/26 02:04:21;;;;;;;7.33;4.47;;;;;;;;;;5003588;28;20596;-85
2022/02/26 02:07:25;;;;;;;12.00;4.83;;;;;;;;;;5003701;28;20585;-86
2022/02/26 02:10:29;;;;;;;8.73;4.83;;;;;;;;;;4992015;28;20592;-84
2022/02/26 02:13:34;;;;;;;10.07;4.70;;;;;;;;;;4991761;28;20549;-85
2022/02/26 02:16:38;;;;;;;8.93;4.67;;;;;;;;;;4991414;28;20616;-86
2022/02/26 02:19:42;;;;;;;9.87;4.23;;;;;;;;;;5002417;28;20588;-85
2022/02/26 02:22:47;;;;;;;5.80;4.23;;;;;;;;;;5000656;28;20585;-83
2022/02/26 02:25:53;;;;;;;9.57;4.53;;;;;;;;;;4990658;28;21104;-83
2022/02/26 02:28:58;;;;;;;7.60;4.43;;;;;;;;;;4994303;28;20584;-83
2022/02/26 02:32:03;;;;;;;8.63;4.47;;;;;;;;;;4972482;28;20554;-83
2022/02/26 02:35:07;;;;;;;11.97;4.30;;;;;;;;;;5001273;28;20659;-85
2022/02/26 02:38:17;;;;;;;8.43;4.47;;;;;;;;;;5002291;28;20545;-86
2022/02/26 02:41:21;;;;;;;9.07;4.53;;;;;;;;;;5001993;28;20542;-84
2022/02/26 02:44:25;;;;;;;9.17;4.40;;;;;;;;;;4996336;28;20585;-83
2022/02/26 02:47:29;;;;;;;7.30;4.73;;;;;;;;;;4991664;28;20585;-84
2022/02/26 02:50:34;;;;;;;7.93;4.33;;;;;;;;;;5002064;28;21066;-86
2022/02/26 02:53:38;;;;;;;8.40;3.90;;;;;;;;;;5002283;28;21025;-85
2022/02/26 02:56:42;;;;;;;7.10;3.83;;;;;;;;;;5012639;28;20616;-83
2022/02/26 02:59:46;;;;;;;6.17;3.50;;;;;;;;;;5001601;28;21066;-86
2022/02/26 03:02:50;;;;;;;8.63;4.47;;;;;;;;;;4989857;28;20589;-85
2022/02/26 03:05:54;;;;;;;9.50;4.27;;;;;;;;;;4999925;28;20652;-85
2022/02/26 03:08:59;;;;;;;5.40;3.60;;;;;;;;;;4990224;28;20592;-85
2022/02/26 03:12:03;;;;;;;8.33;4.00;;;;;;;;;;5001572;28;20541;-85
2022/02/26 03:15:08;;;;;;;8.70;3.53;;;;;;;;;;5000486;28;21021;-85
2022/02/26 03:18:13;;;;;;;6.70;3.20;;;;;;;;;;4987289;28;20943;-86
2022/02/26 03:21:18;;;;;;;5.50;3.27;;;;;;;;;;4989519;28;20982;-85
2022/02/26 03:24:22;;;;;;;6.83;3.40;;;;;;;;;;5012728;28;20600;-85
2022/02/26 03:27:26;;;;;;;6.07;3.27;;;;;;;;;;5001147;28;20585;-85
2022/02/26 03:30:30;;;;;;;4.73;3.03;;;;;;;;;;5001505;28;20541;-85
2022/02/26 03:33:35;;;;;;;7.80;3.60;;;;;;;;;;4990105;28;20552;-85
2022/02/26 03:36:39;;;;;;;5.03;2.80;;;;;;;;;;4980955;28;20648;-85
2022/02/26 03:39:44;;;;;;;7.03;3.93;;;;;;;;;;4998469;28;20592;-85
2022/02/26 03:42:48;;;;;;;8.33;3.20;;;;;;;;;;5001243;28;21055;-85
2022/02/26 03:45:52;;;;;;;8.70;3.47;;;;;;;;;;5011831;28;21233;-85
2022/02/26 03:48:57;;;;;;;5.63;3.23;;;;;;;;;;5001404;28;20545;-85
2022/02/26 03:52:01;;;;;;;7.53;2.67;;;;;;;;;;5000369;28;20592;-85
2022/02/26 03:55:07;;;;;;;7.03;3.03;;;;;;;;;;4989437;28;20651;-85
2022/02/26 03:58:12;;;;;;;8.97;3.07;;;;;;;;;;5000088;28;20597;-86
2022/02/26 04:01:19;;;;;;;8.83;3.57;;;;;;;;;;5001072;28;20545;-85
2022/02/26 04:04:24;;;;;;;8.03;3.37;;;;;;;;;;4989216;28;20593;-85
2022/02/26 04:07:28;;;;;;;7.63;3.30;;;;;;;;;;5000118;28;20652;-86
2022/02/26 04:10:33;;;;;;;7.90;3.40;;;;;;;;;;5000880;28;20580;-86
2022/02/26 04:13:37;;;;;;;8.50;3.43;;;;;;;;;;5011667;28;20549;-86
2022/02/26 04:16:42;;;;;;;5.07;3.20;;;;;;;;;;5000089;28;20647;-85
2022/02/26 04:19:47;;;;;;;5.37;3.63;;;;;;;;;;5000881;28;20549;-85
2022/02/26 04:22:51;;;;;;;6.10;3.50;;;;;;;;;;5000501;28;20557;-83
2022/02/26 04:25:55;;;;;;;5.53;3.17;;;;;;;;;;4981483;28;20657;-84
2022/02/26 04:28:59;;;;;;;7.53;3.40;;;;;;;;;;5003902;28;20597;-86
2022/02/26 04:32:04;;;;;;;8.43;3.67;;;;;;;;;;4991838;28;20534;-85
2022/02/26 04:35:09;;;;;;;6.47;3.57;;;;;;;;;;4986487;28;20656;-84
2022/02/26 04:38:13;;;;;;;5.43;3.43;;;;;;;;;;4999637;28;20537;-86
2022/02/26 04:41:18;;;;;;;6.57;3.40;;;;;;;;;;4980548;28;20604;-84
2022/02/26 04:44:22;;;;;;;6.87;3.43;;;;;;;;;;4991065;28;20624;-86
2022/02/26 04:47:27;;;;;;;9.97;3.40;;;;;;;;;;5000187;28;20628;-84
2022/02/26 04:50:32;;;;;;;5.47;3.20;;;;;;;;;;5047258;28;20616;-86
2022/02/26 04:53:37;;;;;;;4.57;3.30;;;;;;;;;;4999056;28;20620;-86
2022/02/26 04:56:41;;;;;;;7.50;3.30;;;;;;;;;;4999411;28;20616;-86
2022/02/26 04:59:45;;;;;;;7.67;3.13;;;;;;;;;;4999004;28;20596;-87
2022/02/26 05:02:49;;;;;;;5.93;2.90;;;;;;;;;;4999440;28;20982;-83
2022/02/26 05:05:53;;;;;;;7.20;3.47;;;;;;;;;;4992201;28;20664;-83
2022/02/26 05:08:58;;;;;;;6.13;3.10;;;;;;;;;;5003294;28;20600;-86
2022/02/26 05:12:02;;;;;;;6.70;3.70;;;;;;;;;;5002747;28;20600;-83
2022/02/26 05:15:07;;;;;;;7.33;3.60;;;;;;;;;;4984262;28;21182;-84
2022/02/26 05:18:11;;;;;;;9.00;3.17;;;;;;;;;;4973399;28;21067;-84
2022/02/26 05:21:16;;;;;;;9.27;3.60;;;;;;;;;;5003799;28;20601;-86
2022/02/26 05:24:21;;;;;;;8.07;3.50;;;;;;;;;;5003534;28;21162;-85
2022/02/26 05:27:26;;;;;;;9.83;3.63;;;;;;;;;;4991962;28;20632;-86
2022/02/26 05:30:30;;;;;;;7.70;3.87;;;;;;;;;;4992304;28;20548;-85
2022/02/26 05:33:35;;;;;;;9.10;4.17;;;;;;;;;;4993263;28;20588;-84
2022/02/26 05:36:40;;;;;;;9.57;3.63;;;;;;;;;;4984065;28;20641;-84
2022/02/26 05:39:45;;;;;;;5.63;3.90;;;;;;;;;;4987597;28;20604;-84
2022/02/26 05:42:49;;;;;;;10.23;4.70;;;;;;;;;;5003384;28;20541;-86
2022/02/26 05:45:54;;;;;;;6.20;4.00;;;;;;;;;;5003683;28;20668;-86
2022/02/26 05:48:59;;;;;;;9.87;4.20;;;;;;;;;;5002683;28;20588;-84
2022/02/26 05:52:04;;;;;;;10.53;5.40;;;;;;;;;;4992436;28;20911;-85
2022/02/26 05:55:09;;;;;;;7.47;4.83;;;;;;;;;;5003642;28;20652;-86
2022/02/26 05:58:13;;;;;;;8.13;4.63;;;;;;;;;;4992877;28;20596;-87
2022/02/26 06:01:19;;;;;;;9.30;4.87;;;;;;;;;;5002288;28;20545;-85
2022/02/26 06:04:47;;;;;;;9.43;4.97;;;;;;;;;;5004170;28;21185;-84
2022/02/26 06:07:51;;;;;;;7.77;4.80;;;;;;;;;;5003212;28;20632;-86
2022/02/26 06:10:56;;;;;;;9.37;4.30;;;;;;;;;;4992014;28;20592;-84
2022/02/26 06:14:00;;;;;;;6.97;4.70;;;;;;;;;;5002050;28;20596;-87
2022/02/26 06:17:12;;;;;;;10.67;4.73;;;;;;;;;;5012800;28;21157;-85
2022/02/26 06:20:16;;;;;;;7.43;4.23;;;;;;;;;;4990796;28;20956;-86
2022/02/26 06:23:21;;;;;;;6.37;4.50;;;;;;;;;;4994022;28;20576;-86
2022/02/26 06:26:28;;;;;;;6.33;4.13;;;;;;;;;;5002786;28;20659;-85
2022/02/26 06:29:33;;;;;;;9.27;4.20;;;;;;;;;;4999527;28;20974;-84
2022/02/26 06:32:38;;;;;;;10.20;5.00;;;;;;;;;;5012691;28;20604;-86
2022/02/26 06:35:42;;;;;;;5.57;4.13;;;;;;;;;;4993459;28;21003;-87
2022/02/26 06:38:46;;;;;;;9.40;5.97;;;;;;;;;;4985037;28;20588;-86
2022/02/26 06:41:51;;;;;;;10.77;7.20;;;;;;;;;;5001569;28;20537;-84
2022/02/26 06:44:55;;;;;;;11.00;5.83;;;;;;;;;;5015004;28;20652;-85
2022/02/26 06:47:59;;;;;;;10.00;5.40;;;;;;;;;;5001386;28;20628;-83
2022/02/26 06:51:03;;;;;;;10.50;6.00;;;;;;;;;;5001722;28;20956;-84
2022/02/26 06:54:08;;;;;;;11.43;5.07;;;;;;;;;;4989583;28;20592;-85
2022/02/26 06:57:12;;;;;;;11.17;7.40;;;;;;;;;;5012468;28;20592;-85
2022/02/26 07:00:17;;;;;;;11.17;6.80;;;;;;;;;;4994508;28;20936;-84
2022/02/26 07:03:21;;;;;;;10.10;5.87;;;;;;;;;;4999292;28;20600;-86
2022/02/26 07:06:25;;;;;;;9.13;6.40;;;;;;;;;;4989107;28;20664;-84
2022/02/26 07:09:29;;;;;;;9.43;5.63;;;;;;;;;;5001511;28;20592;-85
2022/02/26 07:12:33;;;;;;;12.17;5.83;;;;;;;;;;5000620;28;20588;-85
2022/02/26 07:15:38;;;;;;;10.77;4.83;;;;;;;;;;4989745;28;20648;-83
2022/02/26 07:18:42;;;;;;;12.17;5.30;;;;;;;;;;4977419;28;20620;-85
2022/02/26 07:21:46;;;;;;;10.73;5.40;;;;;;;;;;4992472;28;20612;-86
2022/02/26 07:24:50;;;;;;;9.63;4.73;;;;;;;;;;4992354;28;20604;-85
2022/02/26 07:27:54;;;;;;;9.40;5.03;;;;;;;;;;4988930;28;20652;-84
2022/02/26 07:30:58;;;;;;;13.87;6.33;;;;;;;;;;4990009;28;20620;-85
2022/02/26 07:34:02;;;;;;;9.73;4.63;;;;;;;;;;4987067;28;20577;-85
2022/02/26 07:37:07;;;;;;;14.67;7.57;;;;;;;;;;4987922;28;20577;-83
2022/02/26 07:40:12;;;;;;;30.37;15.63;;;;;;;;;;4990815;28;20585;-84
2022/02/26 07:43:16;;;;;;;23.90;10.43;;;;;;;;;;4989127;28;20589;-84
2022/02/26 07:46:25;;;;;;;19.40;10.63;;;;;;;;;;4999676;28;21225;-86
2022/02/26 07:49:40;;;;;;;37.07;16.90;;;;;;;;;;5000573;28;20621;-87
2022/02/26 07:52:44;;;;;;;16.77;8.30;;;;;;;;;;4989575;28;20596;-86
2022/02/26 07:56:07;;;;;;;15.20;9.60;;;;;;;;;;4988168;28;21193;-86
2022/02/26 08:00:02;;;;;;;20.27;7.93;;;;;;;;;;4998782;28;20593;-86
2022/02/26 08:03:52;;;;;;;26.60;10.00;;;;;;;;;;5080116;28;20601;-85
2022/02/26 08:08:07;;;;;;;10.17;5.23;;;;;;;;;;5090959;28;20645;-88
2022/02/26 08:11:16;;;;;;;13.87;8.47;;;;;;;;;;5081433;28;20581;-84
2022/02/26 08:14:20;;;;;;;42.37;24.47;;;;;;;;;;5068917;28;20581;-85
2022/02/26 08:17:24;;;;;;;16.63;9.47;;;;;;;;;;5060616;28;20605;-85
2022/02/26 08:20:28;;;;;;;15.17;7.37;;;;;;;;;;5040582;28;20609;-86
2022/02/26 08:23:32;;;;;;;10.70;6.27;;;;;;;;;;5069269;28;20624;-86
2022/02/26 08:26:37;;;;;;;11.27;6.17;;;;;;;;;;5053141;28;20639;-86
2022/02/26 08:29:41;;;;;;;19.70;9.23;;;;;;;;;;5068705;28;20624;-84
2022/02/26 08:32:46;;;;;;;20.33;10.87;;;;;;;;;;5069245;28;20597;-85
2022/02/26 08:35:50;;;;;;;10.77;5.50;;;;;;;;;;4988270;28;20663;-85
2022/02/26 08:38:55;;;;;;;10.53;4.97;;;;;;;;;;4979974;28;20936;-84
2022/02/26 08:41:59;;;;;;;12.23;6.07;;;;;;;;;;5003142;28;20580;-85
2022/02/26 08:45:05;;;;;;;13.53;6.20;;;;;;;;;;5002616;28;20640;-85
2022/02/26 08:48:09;;;;;;;12.27;5.80;;;;;;;;;;4993948;28;20621;-83
2022/02/26 08:51:13;;;;;;;15.23;6.93;;;;;;;;;;5004626;28;20955;-83
2022/02/26 08:54:18;;;;;;;11.60;5.03;;;;;;;;;;4993266;28;20971;-84
2022/02/26 08:57:22;;;;;;;16.03;7.87;;;;;;;;;;5004509;28;20585;-83
2022/02/26 09:00:26;;;;;;;11.53;5.87;;;;;;;;;;4992659;28;20592;-85
2022/02/26 09:03:30;;;;;;;8.43;4.47;;;;;;;;;;5014658;28;20190;-86
2022/02/26 09:06:34;;;;;;;21.13;9.03;;;;;;;;;;5014753;28;20635;-85
2022/02/26 09:09:39;;;;;;;11.97;5.03;;;;;;;;;;4991783;28;21196;-85
2022/02/26 09:12:43;;;;;;;9.53;4.40;;;;;;;;;;5003614;28;20968;-85
2022/02/26 09:15:47;;;;;;;14.40;4.43;;;;;;;;;;5002816;28;20221;-85
2022/02/26 09:18:52;;;;;;;14.20;5.30;;;;;;;;;;5000739;28;20608;-85
2022/02/26 09:21:56;;;;;;;22.90;10.10;;;;;;;;;;4996939;28;20190;-86
2022/02/26 09:25:01;;;;;;;10.07;3.87;;;;;;;;;;4986618;28;20217;-85
2022/02/26 09:28:05;;;;;;;14.30;3.80;;;;;;;;;;4984188;28;20557;-83
2022/02/26 09:31:11;;;;;;;9.77;3.90;;;;;;;;;;4991254;28;20190;-83
2022/02/26 09:34:15;;;;;;;10.77;3.33;;;;;;;;;;5002699;28;20646;-84
2022/02/26 09:37:19;;;;;;;8.83;4.03;;;;;;;;;;4991561;28;20189;-83
2022/02/26 09:40:24;;;;;;;8.53;2.90;;;;;;;;;;4991849;28;20198;-83
2022/02/26 09:43:29;;;;;;;9.97;3.30;;;;;;;;;;4979595;28;20202;-83
2022/02/26 09:46:33;;;;;;;5.70;2.80;;;;;;;;;;4991010;28;20225;-84
2022/02/26 09:49:37;;;;;;;8.43;3.10;;;;;;;;;;5005108;28;20178;-84
2022/02/26 09:52:45;;;;;;;10.30;3.43;;;;;;;;;;5005022;28;20189;-84
2022/02/26 09:55:56;;;;;;;8.57;2.50;;;;;;;;;;4992187;28;20690;-84
2022/02/26 09:59:00;;;;;;;9.07;1.90;;;;;;;;;;4991923;28;20178;-84
2022/02/26 10:02:09;;;;;;;4.00;2.10;;;;;;;;;;5001494;28;20580;-84
2022/02/26 10:05:13;;;;;;;5.60;1.80;;;;;;;;;;4982394;28;20225;-84
2022/02/26 10:08:19;;;;;;;10.13;2.10;;;;;;;;;;5005769;28;20695;-84
2022/02/26 10:11:34;;;;;;;4.40;1.70;;;;;;;;;;4999337;28;20229;-83
2022/02/26 10:14:38;;;;;;;7.77;1.90;;;;;;;;;;4994958;28;20190;-84
2022/02/26 10:17:42;;;;;;;10.40;2.00;;;;;;;;;;5002221;28;20647;-84
2022/02/26 10:20:59;;;;;;;6.50;1.60;;;;;;;;;;4990067;28;20198;-84
2022/02/26 10:24:04;;;;;;;3.47;0.97;;;;;;;;;;4995210;28;20589;-84
2022/02/26 10:27:11;;;;;;;10.43;1.60;;;;;;;;;;5006605;28;20193;-84
2022/02/26 10:30:22;;;;;;;7.67;1.43;;;;;;;;;;4991855;28;20193;-83
2022/02/26 10:33:28;;;;;;;9.53;1.63;;;;;;;;;;5016914;28;20820;-84
2022/02/26 10:36:34;;;;;;;6.40;1.50;;;;;;;;;;5006285;28;20225;-84
2022/02/26 10:39:39;;;;;;;6.90;1.57;;;;;;;;;;5006386;28;21014;-84
2022/02/26 10:42:45;;;;;;;8.90;1.47;;;;;;;;;;5005311;28;20194;-83
2022/02/26 10:46:17;;;;;;;5.73;1.50;;;;;;;;;;5004972;28;20579;-83
2022/02/26 10:49:21;;;;;;;10.23;1.77;;;;;;;;;;4986665;28;20218;-84
2022/02/26 10:52:31;;;;;;;6.17;1.50;;;;;;;;;;4986073;28;20656;-84
2022/02/26 10:55:52;;;;;;;8.57;1.53;;;;;;;;;;4987368;28;20214;-83
2022/02/26 10:58:57;;;;;;;6.90;1.40;;;;;;;;;;5006654;28;20600;-84
2022/02/26 11:02:09;;;;;;;5.40;1.60;;;;;;;;;;5005404;28;21165;-84
2022/02/26 11:05:13;;;;;;;15.40;4.40;;;;;;;;;;4993128;28;20221;-84
2022/02/26 11:08:18;;;;;;;6.93;2.57;;;;;;;;;;5007404;28;20213;-84
2022/02/26 11:11:23;;;;;;;10.37;3.57;;;;;;;;;;4995223;28;20201;-84
2022/02/26 11:14:30;;;;;;;13.27;4.70;;;;;;;;;;5006748;28;20220;-84
2022/02/26 11:17:35;;;;;;;7.97;2.47;;;;;;;;;;4995156;28;20652;-84
2022/02/26 11:20:40;;;;;;;5.93;2.10;;;;;;;;;;5006736;28;20194;-84
2022/02/26 11:23:46;;;;;;;14.13;3.80;;;;;;;;;;5017215;28;20205;-84
2022/02/26 11:26:51;;;;;;;6.00;1.63;;;;;;;;;;4994579;28;20217;-84
2022/02/26 11:30:00;;;;;;;6.10;2.03;;;;;;;;;;4995649;28;20648;-84
2022/02/26 11:33:05;;;;;;;5.77;1.50;;;;;;;;;;5002796;28;20197;-87
2022/02/26 11:36:09;;;;;;;12.10;3.10;;;;;;;;;;5009209;28;20225;-87
2022/02/26 11:39:24;;;;;;;11.13;1.60;;;;;;;;;;5009306;28;20185;-87
2022/02/26 11:42:29;;;;;;;6.43;2.00;;;;;;;;;;5012386;28;20194;-86
2022/02/26 11:45:34;;;;;;;10.97;3.03;;;;;;;;;;4990771;28;20583;-86
2022/02/26 11:48:38;;;;;;;5.27;2.07;;;;;;;;;;5001789;28;20213;-86
2022/02/26 11:51:44;;;;;;;9.17;2.37;;;;;;;;;;5002384;28;20555;-86
2022/02/26 11:54:49;;;;;;;10.53;5.13;;;;;;;;;;4990873;28;20174;-87
2022/02/26 11:57:57;;;;;;;9.13;4.30;;;;;;;;;;4978217;28;20186;-86
2022/02/26 12:01:04;;;;;;;7.47;1.70;;;;;;;;;;5000685;28;20189;-86
2022/02/26 12:04:10;;;;;;;5.40;1.40;;;;;;;;;;5072785;28;20174;-86
2022/02/26 12:07:29;;;;;;;7.37;1.33;;;;;;;;;;5024061;28;20193;-87
2022/02/26 12:10:33;;;;;;;2.83;1.40;;;;;;;;;;4990907;28;20190;-87
2022/02/26 12:13:40;;;;;;;3.43;1.20;;;;;;;;;;5002084;28;20201;-87
2022/02/26 12:16:48;;;;;;;4.37;1.20;;;;;;;;;;4977481;28;20575;-86
2022/02/26 12:19:54;;;;;;;5.23;1.27;;;;;;;;;;4983392;28;20174;-85
2022/02/26 12:23:14;;;;;;;4.93;1.30;;;;;;;;;;4983602;28;20190;-85
2022/02/26 12:26:44;;;;;;;5.30;1.30;;;;;;;;;;5015567;28;20248;-84
2022/02/26 12:29:51;;;;;;;6.13;1.27;;;;;;;;;;5004392;28;20680;-85
2022/02/26 12:33:04;;;;;;;4.10;1.57;;;;;;;;;;5004462;28;20189;-85
2022/02/26 12:36:18;;;;;;;6.50;1.50;;;;;;;;;;5045667;22;20233;-82
2022/02/26 12:39:28;;;;;;;9.30;2.30;;;;;;;;;;5024608;28;20185;-87
2022/02/26 12:42:35;;;;;;;10.00;2.97;;;;;;;;;;5051030;28;20202;-88
2022/02/26 12:45:42;;;;;;;8.43;2.20;;;;;;;;;;5008631;28;20216;-87
2022/02/26 12:48:46;;;;;;;5.80;2.03;;;;;;;;;;4994490;28;20221;-87
2022/02/26 12:51:54;;;;;;;5.37;1.80;;;;;;;;;;4995680;28;20188;-87
2022/02/26 12:54:59;;;;;;;6.73;1.53;;;;;;;;;;4993933;28;20185;-87
2022/02/26 12:58:03;;;;;;;5.73;2.10;;;;;;;;;;4989692;28;20198;-87
2022/02/26 13:01:21;;;;;;;36.50;2.60;;;;;;;;;;5006589;28;20189;-87
2022/02/26 13:04:31;;;;;;;6.97;1.40;;;;;;;;;;4994860;28;20662;-87
2022/02/26 13:07:35;;;;;;;8.07;1.77;;;;;;;;;;4986940;28;20202;-87
2022/02/26 13:10:42;;;;;;;7.97;1.90;;;;;;;;;;4997715;28;20186;-88
2022/02/26 13:13:46;;;;;;;8.27;2.43;;;;;;;;;;4986438;28;20205;-87
2022/02/26 13:17:02;;;;;;;4.40;1.60;;;;;;;;;;4987066;28;20221;-87
2022/02/26 13:20:16;;;;;;;6.43;1.43;;;;;;;;;;5013444;28;20193;-87
2022/02/26 13:23:20;;;;;;;7.63;1.20;;;;;;;;;;5006280;28;20192;-87
2022/02/26 13:26:27;;;;;;;8.10;2.03;;;;;;;;;;4989529;28;20220;-87
2022/02/26 13:29:41;;;;;;;7.00;2.00;;;;;;;;;;4999049;28;20205;-87
2022/02/26 13:32:47;;;;;;;7.77;1.80;;;;;;;;;;4995781;28;20193;-87
2022/02/26 13:35:51;;;;;;;5.23;1.90;;;;;;;;;;5009722;28;20216;-87
2022/02/26 13:38:56;;;;;;;5.90;2.10;;;;;;;;;;4998303;28;20197;-88
2022/02/26 13:42:02;;;;;;;7.40;2.23;;;;;;;;;;4998241;28;20554;-87
2022/02/26 13:45:09;;;;;;;9.13;2.17;;;;;;;;;;5020439;28;20185;-87
2022/02/26 13:48:15;;;;;;;4.43;1.27;;;;;;;;;;4987802;28;20197;-87
2022/02/26 13:51:30;;;;;;;10.67;2.27;;;;;;;;;;4998889;28;20189;-88
2022/02/26 13:54:37;;;;;;;6.57;1.90;;;;;;;;;;5011646;28;20193;-88
2022/02/26 13:57:44;;;;;;;19.93;7.17;;;;;;;;;;5019849;28;20184;-87
2022/02/26 14:01:05;;;;;;;11.10;4.97;;;;;;;;;;4995505;28;20182;-87
2022/02/26 14:04:25;;;;;;;48.37;24.43;;;;;;;;;;5001539;28;20182;-87
2022/02/26 14:07:41;;;;;;;12.90;4.83;;;;;;;;;;5008460;28;20201;-86
2022/02/26 14:10:46;;;;;;;7.37;2.40;;;;;;;;;;4990044;28;20205;-86
2022/02/26 14:13:50;;;;;;;10.93;3.63;;;;;;;;;;4979009;28;20182;-87
2022/02/26 14:17:14;;;;;;;7.03;1.77;;;;;;;;;;5006951;28;20686;-87
2022/02/26 14:20:24;;;;;;;9.37;2.30;;;;;;;;;;5009336;28;20193;-87
2022/02/26 14:23:28;;;;;;;6.63;2.70;;;;;;;;;;4997767;28;20193;-86
2022/02/26 14:26:32;;;;;;;7.80;2.33;;;;;;;;;;5000900;28;20216;-84
2022/02/26 14:29:36;;;;;;;6.80;1.93;;;;;;;;;;4999077;28;20690;-84
2022/02/26 14:32:46;;;;;;;9.87;3.17;;;;;;;;;;4995195;28;20193;-86
2022/02/26 14:35:50;;;;;;;7.20;2.40;;;;;;;;;;4987470;28;20586;-84
2022/02/26 14:38:54;;;;;;;9.50;3.33;;;;;;;;;;5009919;28;20542;-84
2022/02/26 14:41:59;;;;;;;18.37;8.93;;;;;;;;;;5016498;28;20193;-86
2022/02/26 14:45:07;;;;;;;17.40;7.30;;;;;;;;;;5000727;28;20200;-86
2022/02/26 14:48:12;;;;;;;7.70;4.80;;;;;;;;;;5002322;28;20539;-84
2022/02/26 14:51:17;;;;;;;8.73;2.10;;;;;;;;;;5001472;28;20181;-86
2022/02/26 14:54:23;;;;;;;7.03;1.90;;;;;;;;;;4998081;28;20189;-87
2022/02/26 14:57:27;;;;;;;6.23;2.03;;;;;;;;;;5017442;28;20651;-86
2022/02/26 15:00:31;;;;;;;13.43;2.47;;;;;;;;;;5000342;28;20201;-86
2022/02/26 15:03:37;;;;;;;7.67;2.60;;;;;;;;;;4989354;28;20193;-89
2022/02/26 15:06:42;;;;;;;6.90;1.83;;;;;;;;;;5005755;28;20216;-85
2022/02/26 15:09:46;;;;;;;7.20;1.80;;;;;;;;;;5019994;28;20212;-85
2022/02/26 15:12:50;;;;;;;4.97;1.97;;;;;;;;;;5009893;28;20185;-84
2022/02/26 15:15:54;;;;;;;7.57;2.47;;;;;;;;;;4999656;28;20212;-86
2022/02/26 15:19:02;;;;;;;16.73;5.53;;;;;;;;;;4993678;28;20177;-87
2022/02/26 15:22:06;;;;;;;6.07;2.83;;;;;;;;;;4997381;28;20631;-87
2022/02/26 15:25:10;;;;;;;11.10;5.57;;;;;;;;;;4997397;28;20177;-87
2022/02/26 15:28:15;;;;;;;10.00;4.23;;;;;;;;;;4997818;28;20188;-87
2022/02/26 15:31:19;;;;;;;9.30;3.93;;;;;;;;;;4997567;28;20181;-87
2022/02/26 15:34:23;;;;;;;4.53;2.33;;;;;;;;;;4997489;28;20208;-87
2022/02/26 15:37:27;;;;;;;4.77;2.60;;;;;;;;;;4996981;28;20177;-87
2022/02/26 15:40:31;;;;;;;7.97;2.27;;;;;;;;;;4997362;28;20185;-87
2022/02/26 15:43:36;;;;;;;15.27;4.37;;;;;;;;;;4997382;28;20184;-87
2022/02/26 15:46:40;;;;;;;6.27;2.23;;;;;;;;;;4977631;28;20225;-88
2022/02/26 15:49:44;;;;;;;5.70;2.00;;;;;;;;;;4978078;28;20214;-85
2022/02/26 15:52:48;;;;;;;12.93;4.23;;;;;;;;;;4977747;28;20185;-86
2022/02/26 15:55:53;;;;;;;9.63;2.60;;;;;;;;;;4989528;28;20212;-87
2022/02/26 15:58:57;;;;;;;12.30;4.70;;;;;;;;;;4979391;28;20197;-87
2022/02/26 16:02:02;;;;;;;6.93;2.00;;;;;;;;;;4988533;28;20185;-87
2022/02/26 16:05:07;;;;;;;7.67;2.17;;;;;;;;;;4980320;28;20205;-86
2022/02/26 16:08:11;;;;;;;6.40;1.80;;;;;;;;;;4988598;28;20177;-87
2022/02/26 16:11:15;;;;;;;5.53;2.13;;;;;;;;;;4979304;28;20532;-87
2022/02/26 16:14:19;;;;;;;7.33;1.90;;;;;;;;;;4977599;28;20186;-87
2022/02/26 16:17:23;;;;;;;7.50;1.63;;;;;;;;;;4988960;28;20181;-87
2022/02/26 16:20:28;;;;;;;5.93;1.93;;;;;;;;;;4991210;28;20215;-86
2022/02/26 16:23:31;;;;;;;9.77;2.90;;;;;;;;;;4991386;28;20190;-86
2022/02/26 16:26:36;;;;;;;9.50;4.20;;;;;;;;;;4977523;28;20225;-89
2022/02/26 16:29:40;;;;;;;9.37;4.90;;;;;;;;;;4983864;28;20217;-86
2022/02/26 16:32:45;;;;;;;14.07;6.77;;;;;;;;;;5003105;28;20196;-86
2022/02/26 16:35:49;;;;;;;20.67;6.83;;;;;;;;;;5007510;28;20228;-85
2022/02/26 16:38:53;;;;;;;10.90;3.57;;;;;;;;;;4996344;28;20189;-86
2022/02/26 16:41:57;;;;;;;10.23;2.67;;;;;;;;;;4997639;28;20185;-87
2022/02/26 16:45:01;;;;;;;10.17;3.33;;;;;;;;;;4994783;28;20177;-85
2022/02/26 16:48:05;;;;;;;7.37;3.27;;;;;;;;;;4977308;28;20197;-87
2022/02/26 16:51:09;;;;;;;7.83;2.40;;;;;;;;;;4977587;28;20316;-87
2022/02/26 16:54:13;;;;;;;11.33;3.33;;;;;;;;;;4999478;28;20571;-86
2022/02/26 16:57:19;;;;;;;11.03;3.00;;;;;;;;;;4976403;28;20205;-86
2022/02/26 17:00:25;;;;;;;7.53;2.40;;;;;;;;;;4991184;28;20198;-87
2022/02/26 17:03:28;;;;;;;17.53;6.20;;;;;;;;;;5004556;28;20181;-85
2022/02/26 17:06:32;;;;;;;14.70;5.23;;;;;;;;;;4991133;28;20687;-87
2022/02/26 17:09:37;;;;;;;14.63;4.40;;;;;;;;;;5039013;28;20205;-87
2022/02/26 17:12:41;;;;;;;7.63;3.17;;;;;;;;;;4991716;28;20620;-87
2022/02/26 17:15:46;;;;;;;16.10;5.83;;;;;;;;;;4991666;28;20217;-86
2022/02/26 17:18:50;;;;;;;17.57;3.60;;;;;;;;;;4979631;28;20553;-88
2022/02/26 17:21:54;;;;;;;8.30;3.17;;;;;;;;;;4991253;28;20498;-88
2022/02/26 17:24:58;;;;;;;8.97;4.10;;;;;;;;;;4990948;28;20201;-88
2022/02/26 17:28:02;;;;;;;8.97;3.67;;;;;;;;;;4979710;28;20600;-88
2022/02/26 17:31:06;;;;;;;7.60;2.80;;;;;;;;;;4991443;28;20220;-88
2022/02/26 17:34:10;;;;;;;8.53;3.30;;;;;;;;;;4990733;28;20182;-88
2022/02/26 17:37:14;;;;;;;9.63;3.03;;;;;;;;;;4980615;28;20591;-88
2022/02/26 17:40:19;;;;;;;6.23;2.83;;;;;;;;;;5049851;28;20520;-86
2022/02/26 17:43:23;;;;;;;9.47;3.03;;;;;;;;;;5001963;28;20624;-88
2022/02/26 17:46:27;;;;;;;6.57;3.00;;;;;;;;;;4998544;28;20996;-86
2022/02/26 17:49:31;;;;;;;9.67;3.17;;;;;;;;;;5000044;28;20547;-87
2022/02/26 17:52:35;;;;;;;9.03;2.80;;;;;;;;;;5010164;28;20184;-86
2022/02/26 17:55:39;;;;;;;7.23;3.10;;;;;;;;;;5021939;28;20623;-87
2022/02/26 17:58:44;;;;;;;7.27;2.93;;;;;;;;;;5000459;28;20584;-86
2022/02/26 18:01:48;;;;;;;10.77;3.90;;;;;;;;;;5009649;28;20544;-89
2022/02/26 18:04:52;;;;;;;10.13;3.10;;;;;;;;;;5010478;28;20536;-88
2022/02/26 18:07:56;;;;;;;10.27;3.70;;;;;;;;;;5009981;28;20611;-88
2022/02/26 18:11:02;;;;;;;12.03;3.67;;;;;;;;;;4998392;28;20651;-89
2022/02/26 18:14:06;;;;;;;8.70;3.87;;;;;;;;;;4998301;28;20599;-84
2022/02/26 18:17:10;;;;;;;10.23;4.20;;;;;;;;;;5009026;28;20642;-85
2022/02/26 18:20:15;;;;;;;8.93;4.43;;;;;;;;;;5004433;28;20189;-87
2022/02/26 18:23:19;;;;;;;11.83;4.47;;;;;;;;;;5009875;28;20556;-88
2022/02/26 18:26:23;;;;;;;9.20;5.00;;;;;;;;;;5010176;28;20619;-86
2022/02/26 18:29:27;;;;;;;14.00;4.03;;;;;;;;;;4993916;28;20520;-86